Time;durP1;ratioP1;P1;durP2;ratioP2;P2;SDS_P1;SDS_P2;PMS_P1;PMS_P2;Temp;Humidity;BMP_temperature;BMP_pressure;BME280_temperature;BME280_humidity;BME280_pressure;Samples;Min_cycle;Max_cycle;Signal;HPM_P1;HPM_P2
2023/11/27 00:00:29;;;;;;;4.60;3.90;;;;;;;-2.84;100.00;97606.16;109662;1251;75360;-68
2023/11/27 00:03:06;;;;;;;4.70;4.10;;;;;;;-2.84;100.00;97600.82;109654;1251;67934;-67
2023/11/27 00:05:33;;;;;;;4.40;3.80;;;;;;;-2.85;100.00;97603.13;109625;1251;72384;-70
2023/11/27 00:08:00;;;;;;;3.40;3.10;;;;;;;-2.85;100.00;97595.48;109646;1251;61145;-67
2023/11/27 00:10:26;;;;;;;4.10;3.20;;;;;;;-2.87;100.00;97598.67;109563;1251;59719;-66
2023/11/27 00:12:58;;;;;;;3.90;2.80;;;;;;;-2.88;100.00;97606.20;109660;1251;74285;-68
2023/11/27 00:15:25;;;;;;;5.60;3.40;;;;;;;-2.89;100.00;97603.67;109638;1251;66900;-64
2023/11/27 00:17:54;;;;;;;3.60;3.20;;;;;;;-2.93;100.00;97605.92;109643;1251;59785;-68
2023/11/27 00:20:21;;;;;;;3.50;3.20;;;;;;;-2.95;100.00;97610.60;109621;1251;59770;-68
2023/11/27 00:22:47;;;;;;;3.20;2.90;;;;;;;-2.98;100.00;97608.96;109678;1251;59836;-68
2023/11/27 00:25:14;;;;;;;4.00;3.30;;;;;;;-3.00;100.00;97606.08;109683;1250;75325;-66
2023/11/27 00:27:42;;;;;;;3.30;3.00;;;;;;;-3.04;100.00;97600.83;109697;1251;67648;-67
2023/11/27 00:30:08;;;;;;;4.00;3.00;;;;;;;-3.07;100.00;97601.04;109496;1251;72770;-67
2023/11/27 00:32:35;;;;;;;6.60;3.10;;;;;;;-3.08;100.00;97596.71;109557;1251;59956;-69
2023/11/27 00:35:01;;;;;;;3.90;3.50;;;;;;;-3.10;100.00;97596.52;109568;1251;59734;-62
2023/11/27 00:37:28;;;;;;;4.40;4.00;;;;;;;-3.14;100.00;97598.70;109617;1251;74183;-65
2023/11/27 00:39:54;;;;;;;5.90;4.10;;;;;;;-3.15;100.00;97598.42;109722;1251;59844;-67
2023/11/27 00:42:21;;;;;;;4.70;3.90;;;;;;;-3.15;100.00;97595.17;109651;1251;72544;-65
2023/11/27 00:44:48;;;;;;;5.50;4.10;;;;;;;-3.15;100.00;97591.48;109642;1251;59738;-66
2023/11/27 00:47:14;;;;;;;4.70;4.30;;;;;;;-3.12;100.00;97585.04;109683;1251;59882;-67
2023/11/27 00:49:41;;;;;;;3.90;3.60;;;;;;;-3.11;100.00;97586.19;109661;1251;75461;-68
2023/11/27 00:52:07;;;;;;;4.80;3.90;;;;;;;-3.11;100.00;97583.40;109659;1251;60095;-67
2023/11/27 00:54:34;;;;;;;3.80;3.50;;;;;;;-3.12;100.00;97584.84;109645;1250;71177;-66
2023/11/27 00:57:01;;;;;;;3.60;3.20;;;;;;;-3.12;100.00;97587.60;109618;1251;59739;-65
2023/11/27 00:59:27;;;;;;;3.90;3.60;;;;;;;-3.12;100.00;97585.00;109648;1251;59845;-66
2023/11/27 01:01:54;;;;;;;3.40;3.00;;;;;;;-3.12;100.00;97585.91;109728;1250;73732;-62
2023/11/27 01:04:21;;;;;;;6.20;4.00;;;;;;;-3.15;100.00;97589.95;109686;1251;67733;-68
2023/11/27 01:06:51;;;;;;;6.50;4.30;;;;;;;-3.17;100.00;97594.13;109509;1254;72357;-67
2023/11/27 01:09:18;;;;;;;7.00;3.90;;;;;;;-3.19;100.00;97587.67;109530;1251;59783;-67
2023/11/27 01:11:44;;;;;;;5.40;3.60;;;;;;;-3.20;100.00;97586.59;109577;1251;60048;-66
2023/11/27 01:14:11;;;;;;;4.90;3.50;;;;;;;-3.21;100.00;97586.01;109668;1251;59764;-67
2023/11/27 01:16:37;;;;;;;4.40;3.40;;;;;;;-3.22;100.00;97579.30;109675;1250;60127;-66
2023/11/27 01:19:04;;;;;;;5.40;3.60;;;;;;;-3.22;100.00;97581.02;109626;1251;72514;-64
2023/11/27 01:21:31;;;;;;;3.60;3.20;;;;;;;-3.23;100.00;97574.73;109685;1251;59763;-68
2023/11/27 01:23:58;;;;;;;4.00;3.60;;;;;;;-3.25;100.00;97571.06;109631;1250;59802;-66
2023/11/27 01:26:24;;;;;;;3.20;2.90;;;;;;;-3.29;100.00;97570.15;109643;1251;74434;-67
2023/11/27 01:28:51;;;;;;;3.10;2.80;;;;;;;-3.34;100.00;97567.34;109644;1251;67601;-64
2023/11/27 01:31:18;;;;;;;3.20;2.90;;;;;;;-3.41;100.00;97565.98;109571;1251;71369;-64
2023/11/27 01:33:44;;;;;;;4.00;2.80;;;;;;;-3.48;100.00;97566.80;109615;1250;59822;-66
2023/11/27 01:36:12;;;;;;;2.50;2.30;;;;;;;-3.57;100.00;97563.56;109653;1251;59655;-67
2023/11/27 01:38:38;;;;;;;4.20;3.00;;;;;;;-3.64;100.00;97561.22;109645;1251;75340;-65
2023/11/27 01:41:05;;;;;;;3.30;3.00;;;;;;;-3.71;100.00;97560.47;109622;1251;60093;-64
2023/11/27 01:43:31;;;;;;;3.70;3.00;;;;;;;-3.77;100.00;97560.39;109622;1251;72710;-66
2023/11/27 01:46:18;;;;;;;3.10;2.50;;;;;;;-3.82;100.00;97561.19;109626;1251;59750;-68
2023/11/27 01:48:45;;;;;;;3.50;2.70;;;;;;;-3.85;100.00;97561.09;109562;1251;60656;-68
2023/11/27 01:51:12;;;;;;;3.10;2.50;;;;;;;-3.84;100.00;97561.05;109673;1251;74521;-64
2023/11/27 01:53:39;;;;;;;2.90;2.50;;;;;;;-3.85;100.00;97558.97;109576;1251;67756;-68
2023/11/27 01:56:06;;;;;;;3.80;2.60;;;;;;;-3.87;100.00;97558.16;109538;1251;72654;-67
2023/11/27 01:58:32;;;;;;;2.80;2.50;;;;;;;-3.89;100.00;97564.55;109565;1251;59852;-64
2023/11/27 02:00:59;;;;;;;2.90;2.60;;;;;;;-3.92;100.00;97562.06;109499;1251;59825;-65
2023/11/27 02:03:25;;;;;;;2.60;2.40;;;;;;;-3.97;100.00;97558.34;109584;1251;75438;-66
2023/11/27 02:05:53;;;;;;;2.50;2.30;;;;;;;-4.02;100.00;97561.88;109679;1250;66571;-67
2023/11/27 02:08:20;;;;;;;2.40;2.20;;;;;;;-4.07;100.00;97557.02;109593;1251;72484;-66
2023/11/27 02:10:46;;;;;;;2.40;2.20;;;;;;;-4.10;100.00;97561.15;109520;1251;59739;-64
2023/11/27 02:13:14;;;;;;;3.90;2.60;;;;;;;-4.16;100.00;97564.71;109621;1251;59823;-64
2023/11/27 02:15:40;;;;;;;2.70;2.50;;;;;;;-4.19;100.00;97562.36;109647;1251;75426;-65
2023/11/27 02:18:07;;;;;;;3.30;2.60;;;;;;;-4.22;100.00;97564.89;109659;1250;66701;-67
2023/11/27 02:20:34;;;;;;;2.90;2.40;;;;;;;-4.25;100.00;97564.66;109454;1251;71071;-70
2023/11/27 02:23:00;;;;;;;3.80;1.70;;;;;;;-4.27;100.00;97564.42;109563;1251;62676;-66
2023/11/27 02:25:27;;;;;;;2.40;2.00;;;;;;;-4.27;100.00;97567.05;109681;1250;60033;-64
2023/11/27 02:27:53;;;;;;;2.10;1.90;;;;;;;-4.30;100.00;97566.40;109652;1250;59719;-68
2023/11/27 02:30:20;;;;;;;2.00;1.80;;;;;;;-4.34;100.00;97564.70;109661;1251;59758;-65
2023/11/27 02:32:47;;;;;;;4.20;2.10;;;;;;;-4.39;100.00;97558.82;109678;1251;70283;-65
2023/11/27 02:35:13;;;;;;;2.80;2.00;;;;;;;-4.42;100.00;97560.95;109635;1250;60204;-68
2023/11/27 02:37:40;;;;;;;2.10;1.90;;;;;;;-4.45;100.00;97555.02;109600;1250;60260;-68
2023/11/27 02:40:10;;;;;;;1.90;1.60;;;;;;;-4.49;100.00;97554.27;109678;1250;75605;-69
2023/11/27 02:42:39;;;;;;;1.50;1.40;;;;;;;-4.53;100.00;97558.94;109584;1250;67844;-66
2023/11/27 02:45:06;;;;;;;1.90;1.70;;;;;;;-4.60;100.00;97565.52;109635;1250;73425;-65
2023/11/27 02:47:33;;;;;;;2.90;1.90;;;;;;;-4.62;100.00;97565.20;109636;1251;60456;-65
2023/11/27 02:50:00;;;;;;;3.60;1.80;;;;;;;-4.65;100.00;97561.67;109678;1251;59643;-63
2023/11/27 02:52:26;;;;;;;2.30;1.80;;;;;;;-4.67;100.00;97558.33;109653;1250;74243;-71
2023/11/27 02:54:55;;;;;;;2.10;1.80;;;;;;;-4.67;100.00;97559.09;109633;1251;59888;-66
2023/11/27 02:57:22;;;;;;;2.30;2.10;;;;;;;-4.70;100.00;97563.80;109661;1250;72560;-67
2023/11/27 02:59:49;;;;;;;5.30;1.50;;;;;;;-4.73;100.00;97563.55;109679;1250;60316;-67
2023/11/27 03:02:16;;;;;;;2.90;2.20;;;;;;;-4.75;100.00;97570.23;109691;1250;60142;-66
2023/11/27 03:04:42;;;;;;;3.20;1.80;;;;;;;-4.76;100.00;97577.91;109688;1250;74127;-66
2023/11/27 03:07:09;;;;;;;1.70;1.60;;;;;;;-4.79;100.00;97582.48;109688;1250;59720;-67
2023/11/27 03:09:37;;;;;;;2.10;1.50;;;;;;;-4.80;100.00;97582.08;109623;1251;70754;-67
2023/11/27 03:12:03;;;;;;;2.10;1.90;;;;;;;-4.82;100.00;97585.33;109570;1250;59781;-65
2023/11/27 03:14:30;;;;;;;1.90;1.40;;;;;;;-4.85;100.00;97589.02;109680;1250;59659;-64
2023/11/27 03:16:56;;;;;;;2.10;1.90;;;;;;;-4.89;100.00;97590.19;109660;1250;60032;-68
2023/11/27 03:19:23;;;;;;;2.20;2.00;;;;;;;-4.92;100.00;97597.39;109674;1250;69453;-64
2023/11/27 03:21:55;;;;;;;3.30;2.50;;;;;;;-4.96;100.00;97596.80;109698;1250;72444;-63
2023/11/27 03:24:22;;;;;;;2.50;2.30;;;;;;;-4.97;100.00;97588.48;109640;1251;59740;-65
2023/11/27 03:26:49;;;;;;;2.20;2.00;;;;;;;-5.00;100.00;97590.05;109628;1250;59740;-69
2023/11/27 03:29:16;;;;;;;2.30;1.70;;;;;;;-5.01;100.00;97601.54;109516;1250;75279;-65
2023/11/27 03:31:42;;;;;;;2.20;2.00;;;;;;;-4.99;100.00;97607.93;109649;1250;67672;-69
2023/11/27 03:34:09;;;;;;;1.60;1.50;;;;;;;-4.98;100.00;97607.76;109653;1250;72668;-69
2023/11/27 03:36:35;;;;;;;2.40;1.90;;;;;;;-4.98;100.00;97609.45;109639;1250;59710;-71
2023/11/27 03:39:03;;;;;;;4.50;1.80;;;;;;;-5.02;100.00;97605.23;109672;1250;59760;-66
2023/11/27 03:41:29;;;;;;;3.50;2.20;;;;;;;-5.04;100.00;97607.13;109603;1251;74284;-68
2023/11/27 03:43:56;;;;;;;3.90;2.20;;;;;;;-5.07;100.00;97609.09;109567;1251;59792;-67
2023/11/27 03:46:22;;;;;;;3.50;2.20;;;;;;;-5.10;100.00;97608.98;109679;1250;72393;-64
2023/11/27 03:48:49;;;;;;;3.20;2.40;;;;;;;-5.13;100.00;97612.64;109624;1251;59733;-66
2023/11/27 03:51:16;;;;;;;2.90;2.10;;;;;;;-5.14;100.00;97610.29;109668;1250;59831;-70
2023/11/27 03:53:42;;;;;;;3.10;2.30;;;;;;;-5.15;100.00;97608.19;109687;1250;75173;-63
2023/11/27 03:56:09;;;;;;;3.30;2.30;;;;;;;-5.18;100.00;97614.09;109645;1250;66552;-68
2023/11/27 03:58:35;;;;;;;5.20;2.20;;;;;;;-5.19;100.00;97614.33;109639;1250;72818;-66
2023/11/27 04:01:03;;;;;;;2.70;2.30;;;;;;;-5.20;100.00;97614.97;109635;1250;59903;-66
2023/11/27 04:03:30;;;;;;;3.60;2.30;;;;;;;-5.23;100.00;97612.98;109689;1250;59725;-67
2023/11/27 04:05:58;;;;;;;2.80;2.50;;;;;;;-5.29;100.00;97614.45;109688;1250;75624;-68
2023/11/27 04:08:26;;;;;;;4.20;2.40;;;;;;;-5.35;100.00;97606.43;109537;1253;67752;-65
2023/11/27 04:10:54;;;;;;;7.40;2.90;;;;;;;-5.42;100.00;97605.77;109581;1250;72657;-69
2023/11/27 04:13:21;;;;;;;4.60;2.90;;;;;;;-5.46;100.00;97604.52;109537;1251;61739;-67
2023/11/27 04:15:47;;;;;;;3.40;2.80;;;;;;;-5.48;100.00;97604.19;109664;1250;59703;-70
2023/11/27 04:18:15;;;;;;;4.40;2.70;;;;;;;-5.49;100.00;97605.45;109523;1251;75322;-63
2023/11/27 04:20:43;;;;;;;2.80;2.30;;;;;;;-5.49;100.00;97605.45;109689;1250;67647;-66
2023/11/27 04:23:11;;;;;;;4.10;3.00;;;;;;;-5.49;100.00;97614.41;109560;1250;72686;-63
2023/11/27 04:25:39;;;;;;;3.30;2.40;;;;;;;-5.49;100.00;97619.26;109617;1250;59792;-65
2023/11/27 04:28:05;;;;;;;3.70;2.20;;;;;;;-5.50;100.00;97625.77;109673;1250;60148;-67
2023/11/27 04:30:32;;;;;;;2.60;2.40;;;;;;;-5.52;100.00;97630.19;109668;1251;75313;-67
2023/11/27 04:32:59;;;;;;;2.90;2.50;;;;;;;-5.55;100.00;97626.15;109660;1250;66418;-65
2023/11/27 04:35:25;;;;;;;4.40;2.70;;;;;;;-5.60;100.00;97627.20;109655;1251;59805;-64
2023/11/27 04:37:52;;;;;;;3.10;2.80;;;;;;;-5.65;100.00;97629.13;109628;1250;59678;-68
2023/11/27 04:40:19;;;;;;;3.20;2.60;;;;;;;-5.70;100.00;97634.34;109653;1250;59685;-68
2023/11/27 04:42:45;;;;;;;3.00;2.40;;;;;;;-5.75;100.00;97638.48;109629;1250;74203;-68
2023/11/27 04:45:12;;;;;;;3.10;2.50;;;;;;;-5.79;100.00;97642.77;109703;1250;59870;-66
2023/11/27 04:47:38;;;;;;;4.60;2.40;;;;;;;-5.82;100.00;97646.84;109657;1250;72652;-66
2023/11/27 04:50:06;;;;;;;3.20;2.80;;;;;;;-5.84;100.00;97651.34;109656;1250;59767;-62
2023/11/27 04:52:33;;;;;;;4.10;2.20;;;;;;;-5.85;100.00;97650.83;109648;1250;59739;-66
2023/11/27 04:55:02;;;;;;;4.20;2.40;;;;;;;-5.85;100.00;97646.41;109603;1251;74031;-67
2023/11/27 04:57:29;;;;;;;2.60;2.20;;;;;;;-5.86;100.00;97644.72;109663;1250;67721;-65
2023/11/27 04:59:56;;;;;;;3.40;2.70;;;;;;;-5.87;100.00;97644.45;109638;1251;72400;-61
2023/11/27 05:02:23;;;;;;;4.00;2.70;;;;;;;-5.87;100.00;97642.72;109604;1250;60243;-64
2023/11/27 05:04:49;;;;;;;4.10;2.40;;;;;;;-5.86;100.00;97643.89;109675;1250;59801;-65
2023/11/27 05:07:16;;;;;;;3.90;3.10;;;;;;;-5.89;100.00;97638.59;109668;1250;75482;-67
2023/11/27 05:09:43;;;;;;;4.50;2.50;;;;;;;-5.94;100.00;97638.73;109667;1250;66413;-69
2023/11/27 05:12:09;;;;;;;2.90;2.50;;;;;;;-5.96;100.00;97641.70;109624;1250;71513;-70
2023/11/27 05:14:49;;;;;;;3.40;2.80;;;;;;;-6.00;100.00;97645.61;109614;1251;61771;-65
2023/11/27 05:17:16;;;;;;;2.70;2.40;;;;;;;-6.02;100.00;97651.06;109642;1251;60324;-64
2023/11/27 05:19:43;;;;;;;5.80;2.60;;;;;;;-6.01;100.00;97654.67;109725;1251;75559;-67
2023/11/27 05:22:09;;;;;;;2.40;2.20;;;;;;;-6.03;100.00;97658.77;109631;1250;68130;-65
2023/11/27 05:24:35;;;;;;;2.90;2.40;;;;;;;-6.03;100.00;97656.33;109618;1250;59846;-62
2023/11/27 05:27:03;;;;;;;5.50;2.80;;;;;;;-6.03;100.00;97652.90;109624;1250;59795;-67
2023/11/27 05:29:30;;;;;;;3.90;2.70;;;;;;;-6.04;100.00;97653.85;109620;1250;59816;-65
2023/11/27 05:31:56;;;;;;;3.70;3.10;;;;;;;-6.05;100.00;97650.98;109586;1250;60114;-66
2023/11/27 05:34:23;;;;;;;8.20;3.50;;;;;;;-6.07;100.00;97655.63;109663;1250;67783;-68
2023/11/27 05:36:49;;;;;;;3.70;3.20;;;;;;;-6.08;100.00;97666.38;109563;1250;71405;-65
2023/11/27 05:39:16;;;;;;;6.00;3.40;;;;;;;-6.07;100.00;97673.19;109561;1250;59830;-64
2023/11/27 05:41:43;;;;;;;5.20;3.30;;;;;;;-6.09;100.00;97675.30;109661;1250;60235;-64
2023/11/27 05:44:10;;;;;;;3.60;3.20;;;;;;;-6.11;100.00;97675.27;109591;1250;75136;-64
2023/11/27 05:46:37;;;;;;;8.10;3.20;;;;;;;-6.12;100.00;97672.91;109670;1250;67555;-64
2023/11/27 05:49:05;;;;;;;6.10;2.90;;;;;;;-6.12;100.00;97672.58;109613;1250;72583;-63
2023/11/27 05:51:33;;;;;;;3.90;2.90;;;;;;;-6.11;100.00;97670.79;109565;1250;60550;-66
2023/11/27 05:53:59;;;;;;;5.90;2.70;;;;;;;-6.11;100.00;97672.66;109648;1251;59664;-63
2023/11/27 05:56:26;;;;;;;5.60;3.60;;;;;;;-6.08;100.00;97675.00;109677;1250;60028;-64
2023/11/27 05:58:53;;;;;;;4.60;2.90;;;;;;;-6.05;100.00;97680.34;109662;1250;66748;-65
2023/11/27 06:01:21;;;;;;;5.50;2.80;;;;;;;-6.02;100.00;97683.70;109619;1250;72460;-64
2023/11/27 06:03:47;;;;;;;3.80;3.10;;;;;;;-5.98;100.00;97689.66;109621;1250;60236;-65
2023/11/27 06:06:14;;;;;;;4.10;3.20;;;;;;;-5.97;100.00;97691.83;109613;1250;60243;-70
2023/11/27 06:08:41;;;;;;;4.10;3.30;;;;;;;-5.94;100.00;97695.23;109619;1250;75481;-69
2023/11/27 06:11:08;;;;;;;3.50;2.70;;;;;;;-5.89;100.00;97697.91;109634;1250;68053;-68
2023/11/27 06:13:35;;;;;;;3.50;3.10;;;;;;;-5.84;100.00;97692.36;109654;1250;72415;-67
2023/11/27 06:16:02;;;;;;;4.40;3.30;;;;;;;-5.78;100.00;97692.95;109647;1250;60438;-66
2023/11/27 06:18:29;;;;;;;5.60;3.10;;;;;;;-5.69;100.00;97686.76;109643;1250;59776;-68
2023/11/27 06:20:56;;;;;;;8.40;2.90;;;;;;;-5.51;100.00;97690.08;109641;1250;74056;-62
2023/11/27 06:23:22;;;;;;;6.40;3.00;;;;;;;-5.28;100.00;97696.62;109682;1250;59792;-66
2023/11/27 06:25:49;;;;;;;5.50;3.20;;;;;;;-4.99;100.00;97696.81;109625;1250;73723;-64
2023/11/27 06:28:15;;;;;;;4.00;3.60;;;;;;;-4.67;100.00;97698.60;109547;1250;59896;-64
2023/11/27 06:30:42;;;;;;;7.30;4.20;;;;;;;-4.33;100.00;97702.36;109613;1250;60166;-63
2023/11/27 06:33:09;;;;;;;5.30;3.80;;;;;;;-4.01;100.00;97705.61;109697;1250;74209;-63
2023/11/27 06:35:35;;;;;;;6.00;4.50;;;;;;;-3.68;100.00;97707.80;109632;1251;66451;-65
2023/11/27 06:38:02;;;;;;;6.30;3.30;;;;;;;-3.35;100.00;97704.55;109643;1250;71295;-61
2023/11/27 06:40:29;;;;;;;3.40;3.10;;;;;;;-3.06;100.00;97699.66;109634;1250;60596;-62
2023/11/27 06:43:11;;;;;;;7.30;3.00;;;;;;;-2.76;100.00;97697.77;109597;1250;59855;-61
2023/11/27 06:45:38;;;;;;;4.40;3.40;;;;;;;-2.51;100.00;97694.39;109658;1251;73418;-61
2023/11/27 06:48:05;;;;;;;7.90;3.50;;;;;;;-2.26;100.00;97692.89;109656;1250;67960;-62
2023/11/27 06:50:31;;;;;;;7.50;4.30;;;;;;;-1.99;100.00;97692.61;109504;1250;71423;-62
2023/11/27 06:52:58;;;;;;;14.80;5.20;;;;;;;-1.71;100.00;97696.33;109463;1250;59778;-62
2023/11/27 06:55:24;;;;;;;25.00;4.40;;;;;;;-1.47;100.00;97695.81;109523;1250;59740;-62
2023/11/27 06:57:51;;;;;;;7.80;3.50;;;;;;;-1.18;100.00;97701.05;109548;1250;75253;-61
2023/11/27 07:00:17;;;;;;;4.10;3.20;;;;;;;-0.90;100.00;97696.18;109575;1250;67855;-62
2023/11/27 07:02:44;;;;;;;4.70;3.10;;;;;;;-0.63;100.00;97702.33;109586;1250;72702;-62
2023/11/27 07:05:11;;;;;;;9.90;4.20;;;;;;;-0.35;100.00;97702.95;109557;1250;59771;-62
2023/11/27 07:07:38;;;;;;;6.40;3.80;;;;;;;-0.01;100.00;97702.79;109534;1251;60307;-62
2023/11/27 07:10:05;;;;;;;11.80;3.70;;;;;;;0.33;100.00;97701.88;109489;1250;75150;-62
2023/11/27 07:12:32;;;;;;;12.40;3.70;;;;;;;0.69;100.00;97695.33;109508;1250;66532;-62
2023/11/27 07:14:59;;;;;;;7.70;3.30;;;;;;;1.06;100.00;97690.42;109478;1251;71442;-62
2023/11/27 07:17:25;;;;;;;10.90;3.70;;;;;;;1.44;100.00;97686.33;109515;1251;59852;-62
2023/11/27 07:19:52;;;;;;;8.40;3.80;;;;;;;1.78;100.00;97682.45;109452;1250;59999;-62
2023/11/27 07:22:28;;;;;;;10.20;3.90;;;;;;;2.09;100.00;97686.73;109569;1250;75754;-62
2023/11/27 07:24:54;;;;;;;15.10;3.30;;;;;;;2.41;98.81;97680.45;109673;1250;67646;-62
2023/11/27 07:27:22;;;;;;;6.50;3.40;;;;;;;2.74;94.63;97679.58;109607;1250;72547;-63
2023/11/27 07:29:51;;;;;;;4.70;3.80;;;;;;;3.04;89.86;97678.40;109633;1250;59741;-63
2023/11/27 07:32:17;;;;;;;7.10;4.40;;;;;;;3.40;87.02;97677.08;109653;1250;59769;-64
2023/11/27 07:34:44;;;;;;;7.20;4.30;;;;;;;3.77;83.44;97675.05;109668;1250;74102;-62
2023/11/27 07:37:10;;;;;;;5.70;3.90;;;;;;;4.11;79.83;97671.85;109651;1250;59717;-62
2023/11/27 07:39:37;;;;;;;11.70;4.50;;;;;;;4.47;75.41;97666.25;109669;1251;59846;-62
2023/11/27 07:42:04;;;;;;;5.40;4.10;;;;;;;4.76;71.56;97667.57;109616;1250;59747;-62
2023/11/27 07:44:30;;;;;;;8.10;3.40;;;;;;;5.01;68.55;97670.96;109659;1251;60250;-62
2023/11/27 07:46:57;;;;;;;4.40;3.10;;;;;;;5.23;65.36;97668.69;109661;1250;59829;-62
2023/11/27 07:49:23;;;;;;;10.50;3.60;;;;;;;5.39;63.38;97673.81;109648;1251;68225;-62
2023/11/27 07:51:52;;;;;;;5.90;3.30;;;;;;;5.58;62.15;97669.50;109553;1250;73716;-62
2023/11/27 07:54:19;;;;;;;9.10;4.00;;;;;;;5.75;60.28;97662.99;109616;1251;59723;-62
2023/11/27 07:56:45;;;;;;;10.20;3.40;;;;;;;5.92;58.33;97660.30;109626;1251;60009;-62
2023/11/27 07:59:12;;;;;;;16.60;4.80;;;;;;;5.93;56.29;97660.52;109579;1250;59803;-62
2023/11/27 08:01:38;;;;;;;5.00;3.50;;;;;;;5.96;55.40;97659.83;109653;1250;59735;-62
2023/11/27 08:04:05;;;;;;;9.30;3.30;;;;;;;6.15;54.21;97658.67;109612;1250;72526;-62
2023/11/27 08:06:32;;;;;;;7.30;3.00;;;;;;;6.25;52.95;97659.40;109627;1251;59680;-62
2023/11/27 08:08:58;;;;;;;5.50;2.80;;;;;;;6.45;51.86;97654.77;109722;1250;60309;-62
2023/11/27 08:11:32;;;;;;;7.20;2.90;;;;;;;6.61;51.33;97662.09;109635;1250;74146;-62
2023/11/27 08:13:59;;;;;;;6.00;3.10;;;;;;;6.87;50.92;97659.21;109643;1250;67944;-61
2023/11/27 08:16:26;;;;;;;10.90;2.80;;;;;;;7.12;49.37;97653.90;109566;1250;72813;-61
2023/11/27 08:18:53;;;;;;;12.90;3.80;;;;;;;7.35;48.27;97655.55;109640;1250;59799;-63
2023/11/27 08:21:22;;;;;;;9.20;3.30;;;;;;;7.57;47.31;97660.63;109683;1251;59808;-61
2023/11/27 08:23:49;;;;;;;2.90;2.60;;;;;;;7.70;45.48;97650.55;109673;1250;75325;-61
2023/11/27 08:26:15;;;;;;;9.60;3.30;;;;;;;7.69;44.91;97647.70;109654;1250;60047;-61
2023/11/27 08:28:43;;;;;;;11.90;3.50;;;;;;;7.86;44.65;97649.25;109645;1250;72701;-61
2023/11/27 08:31:10;;;;;;;13.10;3.90;;;;;;;8.11;44.02;97647.88;109623;1251;59786;-62
2023/11/27 08:33:37;;;;;;;7.30;3.00;;;;;;;8.29;43.06;97650.71;109644;1251;59810;-61
2023/11/27 08:36:04;;;;;;;3.50;2.90;;;;;;;8.41;42.52;97653.98;109644;1251;75165;-61
2023/11/27 08:38:30;;;;;;;13.20;3.20;;;;;;;8.65;41.84;97656.52;109593;1250;67128;-61
2023/11/27 08:40:57;;;;;;;8.30;3.10;;;;;;;8.93;41.35;97656.09;109585;1250;71297;-61
2023/11/27 08:43:25;;;;;;;5.80;3.60;;;;;;;9.15;40.73;97658.05;109636;1250;59725;-61
2023/11/27 08:45:52;;;;;;;6.90;3.50;;;;;;;9.41;39.88;97660.03;109610;1251;59689;-62
2023/11/27 08:48:19;;;;;;;2.70;2.40;;;;;;;9.53;38.74;97651.51;109715;1251;75496;-62
2023/11/27 08:50:47;;;;;;;12.00;2.80;;;;;;;9.44;37.93;97653.58;109667;1250;68391;-62
2023/11/27 08:53:13;;;;;;;5.40;2.60;;;;;;;9.48;37.70;97653.20;109676;1250;72464;-62
2023/11/27 08:55:40;;;;;;;7.40;2.40;;;;;;;9.59;37.13;97650.48;109632;1251;59781;-62
2023/11/27 08:58:06;;;;;;;8.90;2.80;;;;;;;9.69;37.02;97647.99;109612;1251;60344;-63
2023/11/27 09:00:34;;;;;;;7.50;3.00;;;;;;;9.88;36.98;97650.55;109658;1250;75402;-62
2023/11/27 09:03:01;;;;;;;8.90;4.50;;;;;;;10.11;36.62;97645.48;109624;1251;67017;-62
2023/11/27 09:05:33;;;;;;;11.00;3.20;;;;;;;10.33;36.07;97642.71;109626;1251;71893;-61
2023/11/27 09:08:05;;;;;;;11.10;2.90;;;;;;;10.46;35.46;97637.68;109631;1251;59808;-61
2023/11/27 09:10:32;;;;;;;14.00;3.30;;;;;;;10.67;35.38;97635.91;109611;1251;60475;-61
2023/11/27 09:12:59;;;;;;;8.10;3.10;;;;;;;10.86;34.70;97635.52;109661;1250;74103;-61
2023/11/27 09:15:26;;;;;;;25.10;3.50;;;;;;;11.05;34.11;97629.92;109628;1251;67870;-62
2023/11/27 09:17:52;;;;;;;3.60;2.00;;;;;;;11.20;33.49;97626.57;109627;1251;72482;-62
2023/11/27 09:20:19;;;;;;;5.90;2.70;;;;;;;11.24;32.56;97629.40;109610;1251;59766;-62
2023/11/27 09:22:46;;;;;;;5.00;2.40;;;;;;;11.02;32.49;97628.58;109599;1251;60033;-63
2023/11/27 09:25:12;;;;;;;13.00;2.40;;;;;;;10.98;32.55;97628.02;109589;1250;59760;-63
2023/11/27 09:27:39;;;;;;;10.50;3.40;;;;;;;11.03;32.45;97629.49;109653;1251;66469;-63
2023/11/27 09:30:09;;;;;;;8.50;2.10;;;;;;;11.02;32.28;97632.30;109637;1252;72369;-63
2023/11/27 09:32:36;;;;;;;11.70;2.60;;;;;;;11.09;32.23;97628.92;109626;1251;59752;-63
2023/11/27 09:35:04;;;;;;;7.70;2.70;;;;;;;11.34;32.12;97627.83;109645;1251;59637;-63
2023/11/27 09:37:32;;;;;;;14.40;3.30;;;;;;;11.62;31.98;97625.30;109657;1251;75388;-63
2023/11/27 09:40:03;;;;;;;7.40;2.80;;;;;;;11.83;31.62;97620.79;109603;1255;66846;-62
2023/11/27 09:42:35;;;;;;;7.30;2.60;;;;;;;12.08;31.02;97612.48;109649;1250;72698;-62
2023/11/27 09:45:16;;;;;;;11.30;3.10;;;;;;;12.34;30.33;97606.52;109631;1251;59735;-63
2023/11/27 09:47:45;;;;;;;11.70;3.30;;;;;;;12.39;30.03;97605.02;109597;1251;60455;-63
2023/11/27 09:50:12;;;;;;;4.40;2.20;;;;;;;12.35;29.73;97614.09;109597;1251;74035;-63
2023/11/27 09:52:49;;;;;;;10.70;2.90;;;;;;;12.27;29.69;97615.73;109461;1251;66376;-63
2023/11/27 09:55:17;;;;;;;5.70;2.40;;;;;;;12.14;29.76;97617.66;109361;1251;205611;-63
2023/11/27 09:57:45;;;;;;;15.10;2.80;;;;;;;12.09;29.61;97615.39;109621;1251;59779;-61
2023/11/27 10:00:13;;;;;;;5.30;2.60;;;;;;;11.96;29.73;97610.92;109540;1251;60506;-61
2023/11/27 10:02:40;;;;;;;16.00;3.10;;;;;;;11.85;29.91;97614.61;109707;1250;75408;-61
2023/11/27 10:05:08;;;;;;;6.10;2.00;;;;;;;11.78;29.79;97615.35;109588;1250;67999;-61
2023/11/27 10:07:35;;;;;;;3.90;1.60;;;;;;;11.48;29.86;97615.56;109630;1251;72595;-61
2023/11/27 10:10:04;;;;;;;6.10;2.10;;;;;;;11.21;29.93;97611.12;109617;1250;60617;-61
2023/11/27 10:12:33;;;;;;;2.20;1.40;;;;;;;10.81;29.94;97615.89;109698;1250;59723;-61
2023/11/27 10:15:02;;;;;;;33.70;2.70;;;;;;;10.30;30.07;97619.24;109720;1251;75179;-61
2023/11/27 10:17:30;;;;;;;7.60;2.20;;;;;;;9.74;30.62;97622.20;109693;1250;67728;-62
2023/11/27 10:19:58;;;;;;;7.00;1.90;;;;;;;9.15;31.10;97627.11;109649;1251;71705;-61
2023/11/27 10:22:29;;;;;;;6.00;2.00;;;;;;;8.60;31.82;97627.76;109612;1250;59723;-61
2023/11/27 10:24:58;;;;;;;3.90;2.00;;;;;;;8.19;32.59;97629.16;109473;1251;60140;-62
2023/11/27 10:27:25;;;;;;;7.80;2.30;;;;;;;7.80;33.03;97621.53;109587;1251;74247;-62
2023/11/27 10:29:52;;;;;;;9.20;1.80;;;;;;;7.30;33.27;97624.80;109624;1250;67268;-62
2023/11/27 10:32:25;;;;;;;4.80;2.10;;;;;;;6.86;34.10;97624.23;109644;1251;72788;-62
2023/11/27 10:34:52;;;;;;;4.80;1.90;;;;;;;6.61;34.66;97625.98;109597;1251;59814;-62
2023/11/27 10:37:18;;;;;;;3.00;1.90;;;;;;;6.40;35.14;97618.47;109691;1251;60767;-62
2023/11/27 10:39:48;;;;;;;8.50;2.40;;;;;;;6.19;35.40;97623.38;109657;1251;75240;-63
2023/11/27 10:42:18;;;;;;;7.50;1.90;;;;;;;5.95;35.67;97619.91;109666;1251;67908;-63
2023/11/27 10:44:48;;;;;;;8.40;2.50;;;;;;;5.73;36.19;97613.61;109624;1250;71790;-62
2023/11/27 10:47:15;;;;;;;3.70;2.30;;;;;;;5.58;36.66;97612.48;109608;1251;60769;-62
2023/11/27 10:49:41;;;;;;;7.20;2.50;;;;;;;5.45;36.93;97608.50;109678;1251;59617;-62
2023/11/27 10:52:11;;;;;;;7.00;2.80;;;;;;;5.32;37.40;97610.02;109507;1250;75416;-61
2023/11/27 10:54:39;;;;;;;5.90;3.20;;;;;;;5.21;37.79;97613.52;109722;1250;67150;-61
2023/11/27 10:57:07;;;;;;;10.60;2.60;;;;;;;5.12;38.16;97616.31;109622;1251;71850;-62
2023/11/27 10:59:34;;;;;;;5.20;2.50;;;;;;;5.03;38.44;97609.98;109629;1250;59714;-62
2023/11/27 11:02:02;;;;;;;6.10;3.10;;;;;;;4.93;38.66;97612.58;109666;1251;59804;-62
2023/11/27 11:04:52;;;;;;;5.80;3.30;;;;;;;4.77;38.65;97612.34;109664;1251;75445;-62
2023/11/27 11:07:32;;;;;;;8.70;3.50;;;;;;;4.56;39.14;97617.14;109621;1251;67914;-62
2023/11/27 11:09:59;;;;;;;6.30;3.00;;;;;;;4.39;39.49;97619.61;109416;1251;72506;-62
2023/11/27 11:12:27;;;;;;;7.50;3.10;;;;;;;4.25;40.01;97616.56;109387;1251;59843;-62
2023/11/27 11:14:55;;;;;;;3.50;2.20;;;;;;;4.09;40.25;97615.05;109657;1251;59851;-62
2023/11/27 11:17:34;;;;;;;9.80;3.00;;;;;;;3.98;40.65;97609.59;109516;1251;74930;-62
2023/11/27 11:20:34;;;;;;;9.40;2.30;;;;;;;3.89;41.00;97608.23;109638;1251;66284;-62
2023/11/27 11:23:14;;;;;;;12.30;3.10;;;;;;;3.69;41.38;97609.73;109507;1251;72660;-62